KTUL/TUL METAR and TAF weather

Enter ICAO airport designator
Station Type Date Time Source
KTUL METAR 2019/02/16 03:12 UTC NOAA

KTUL 160312Z 36013G18KT 10SM OVC007 M04/M06 A3005 RMK AO2 FZDZE12 P0000 I1000 T10441061


Station Type Date Time Source
KTUL Decoded METAR 2019/02/16 03:12 UTC NOAA

TULSA INTERNATIONAL AIRPORT, OK, United States (KTUL) 36-12N 95-53W 207M
Feb 15, 2019 - 10:12 PM EST / 2019.02.16 0312 UTC
Wind: from the N (360 degrees) at 15 MPH (13 KT) gusting to 21 MPH (18 KT):0
Visibility: 10 mile(s):0
Sky conditions: overcast
Precipitation last hour: A trace
Temperature: 24.1 F (-4.4 C)
Windchill: 12 F (-11 C):1
Dew Point: 21.0 F (-6.1 C)
Relative Humidity: 87%
Pressure (altimeter): 30.05 in. Hg (1017 hPa)
ob: KTUL 160312Z 36013G18KT 10SM OVC007 M04/M06 A3005 RMK AO2 FZDZE12 P0000 I1000 T10441061
cycle: 3

Station Type Date Time Source
KTUL TAF 2019/02/16 01:18 UTC NOAA

TAF
AMD KTUL 160117Z 1601/1624 01013KT 6SM -FZDZ OVC006
FM160400 03010KT 5SM BR OVC009
FM161800 07007KT P6SM OVC015


Example: see airport list